الصفحة الرئيسية
METAR-TAF:

METAR-TAF

مطار :

أوتسونوميا, اليابان

دائرة عرض: 36-31N, خط طول: 139-52E, ارتفاع: 102 متر

مراقبة الطقس الحالي

تاريخ ووقت الإصدار 11ساعات و 2 دقيقة قبل الساعة 05:34UTC
ريح 9 عقدة من الجنوب/الجنوب الغربي, الاتجاه يتراوح بين الجنوب و الغرب/الجنوب الغربي
درجة الحرارة 29°درجة مئوية
الرطوبة 74%
ضغط 1005 hPa
الرؤية 10 كم أو أكثر
غيوم قليلة على ارتفاع 3000 قدم
غيوم متفرقة على ارتفاع 12000 قدم
غيوم مفككة على ارتفاع 15000 قدم

METAR: RJTU 240534Z 21009KT 180V250 9999 FEW030 SCT120 BKN150 29/24 Q1005 RMK 1CU030 3AC120 6AC150 A2968

زمن: 01:36 (16:36 UTC)


TAF: مفقودة

أرصاد الطقس والتوقعات من أكثر من 4000 مطار (تقارير الطقس للمطار METAR والتنبؤ بالطقس بالمطارTAF).

المحطات المتاحة هي النقط الصفراء والحمراء على الخريطة.

حرك المؤشر فوق النقطة لمعرفة اسم المحطة.

ثم انقر لمعرفة أرصاد وتوقعات الطقس.

لتغيير الخارطة: اضغط على الأزرار الخضراء مع رمز الصليب الأسود للتكبير. على الزر الأخضر مع شرطة للتصغير، أو على الأسهم الخضراء للخرائط المجاورة.


METAR-TAF: